Ekin-s — TCMW3 — position and weather

sailwx.info

Track history (hours):
 
Tides and Currents Weather Stations Pressure Air Temp Water Temp Dewpoint Dewpoint Depression Visibility Wind Speed Wind Dir Waves Ship Positions

Ekin-s

Last reported at 2015-May-30 18:33 UTC. Time now 2015-May-30 18:37 UTC.
Position N 36°42' W 000°06'.

Length 109 m; draft 6.2 m.

Type: Ship. MMSI: 271042836.

Date/timePositionNaut miles runAvg speedWind from/ knotsBaromVisibWave heightAir tempDewpointWater temp
2015-May-30 18:33N 36°42' W 000°06'1311.9
2015-May-30 17:29N 36°39' W 000°21'1112.3
2015-May-30 16:33N 36°37' W 000°35'1212.3
2015-May-30 15:33N 36°35' W 000°50'1212.0
2015-May-30 14:33N 36°33' W 001°05'1212.1
2015-May-30 13:32N 36°31' W 001°20'1212.2
2015-May-30 12:33N 36°28' W 001°35'4012.1
2015-May-30 09:12N 36°20' W 002°24'1211.7
2015-May-30 08:13N 36°18' W 002°38'1011.9
2015-May-30 07:22N 36°16' W 002°50'11212.5
2015-May-29 22:23N 36°01' W 005°08'1112.8
2015-May-29 21:33N 36°03' W 005°21'8 7.7
2015-May-29 20:32N 36°11' W 005°24'0 0.0
2015-May-28 16:23N 36°11' W 005°24'1 0.1
2015-May-28 06:32N 36°10' W 005°23'0 0.0
2015-May-28 04:20N 36°10' W 005°23'0 0.0
2015-May-28 00:32N 36°10' W 005°23'0 0.1
2015-May-27 23:20N 36°10' W 005°23'0 0.0
2015-May-27 22:26N 36°10' W 005°23'0 0.0
2015-May-27 21:32N 36°10' W 005°23'0 0.0
2015-May-27 20:32N 36°10' W 005°23'0 0.0
2015-May-27 19:32N 36°10' W 005°23'0 0.0
2015-May-27 18:32N 36°10' W 005°23'0 0.0
2015-May-27 17:20N 36°10' W 005°23'0 0.0
2015-May-27 16:32N 36°10' W 005°23'0 0.0
2015-May-27 15:23N 36°10' W 005°23'0 0.2
2015-May-27 13:33N 36°11' W 005°24'0 0.0
2015-May-26 05:30N 36°11' W 005°24'0 0.3
2015-May-26 04:30N 36°10' W 005°24'0 0.0
2015-May-26 03:33N 36°10' W 005°24'0 0.0
2015-May-26 02:32N 36°10' W 005°24'0 0.1
2015-May-26 01:33N 36°10' W 005°23'0 0.0
2015-May-26 00:33N 36°10' W 005°23'0 0.0
2015-May-25 23:33N 36°10' W 005°23'6 5.9
2015-May-25 22:33N 36°05' W 005°20'12811.5
2015-May-25 11:31N 36°23' W 002°43'1212.3
2015-May-25 10:31N 36°25' W 002°28'1212.4
2015-May-25 09:33N 36°26' W 002°14'  
2015-May-22 09:07N 36°54' E 013°36'5 9.4
2015-May-22 08:33N 36°52' E 013°42'9 8.9
2015-May-22 07:33N 36°49' E 013°52'8 8.3
2015-May-22 06:33N 36°46' E 014°02'8 8.1
2015-May-22 05:33N 36°44' E 014°12'8 8.2
2015-May-22 04:33N 36°41' E 014°21'8 8.1
2015-May-22 03:33N 36°38' E 014°31'20 9.2
2015-May-22 01:21N 36°33' E 014°56'  
Track history (hours):
 
Tides and Currents Weather Stations Pressure Air Temp Water Temp Dewpoint Dewpoint Depression Visibility Wind Speed Wind Dir Waves Ship Positions

Ekin-s

Last reported at 2015-May-30 18:33 UTC. Time now 2015-May-30 18:37 UTC.
Position N 36°42' W 000°06'.

Length 109 m; draft 6.2 m.

Type: Ship. MMSI: 271042836.

Date/timePositionNaut miles runAvg speedWind from/ knotsBaromVisibWave heightAir tempDewpointWater temp
2015-May-30 18:33N 36°42' W 000°06'1311.9
2015-May-30 17:29N 36°39' W 000°21'1112.3
2015-May-30 16:33N 36°37' W 000°35'1212.3
2015-May-30 15:33N 36°35' W 000°50'1212.0
2015-May-30 14:33N 36°33' W 001°05'1212.1
2015-May-30 13:32N 36°31' W 001°20'1212.2
2015-May-30 12:33N 36°28' W 001°35'4012.1
2015-May-30 09:12N 36°20' W 002°24'1211.7
2015-May-30 08:13N 36°18' W 002°38'1011.9
2015-May-30 07:22N 36°16' W 002°50'11212.5
2015-May-29 22:23N 36°01' W 005°08'1112.8
2015-May-29 21:33N 36°03' W 005°21'8 7.7
2015-May-29 20:32N 36°11' W 005°24'0 0.0
2015-May-28 16:23N 36°11' W 005°24'1 0.1
2015-May-28 06:32N 36°10' W 005°23'0 0.0
2015-May-28 04:20N 36°10' W 005°23'0 0.0
2015-May-28 00:32N 36°10' W 005°23'0 0.1
2015-May-27 23:20N 36°10' W 005°23'0 0.0
2015-May-27 22:26N 36°10' W 005°23'0 0.0
2015-May-27 21:32N 36°10' W 005°23'0 0.0
2015-May-27 20:32N 36°10' W 005°23'0 0.0
2015-May-27 19:32N 36°10' W 005°23'0 0.0
2015-May-27 18:32N 36°10' W 005°23'0 0.0
2015-May-27 17:20N 36°10' W 005°23'0 0.0
2015-May-27 16:32N 36°10' W 005°23'0 0.0
2015-May-27 15:23N 36°10' W 005°23'0 0.2
2015-May-27 13:33N 36°11' W 005°24'0 0.0
2015-May-26 05:30N 36°11' W 005°24'0 0.3
2015-May-26 04:30N 36°10' W 005°24'0 0.0
2015-May-26 03:33N 36°10' W 005°24'0 0.0
2015-May-26 02:32N 36°10' W 005°24'0 0.1
2015-May-26 01:33N 36°10' W 005°23'0 0.0
2015-May-26 00:33N 36°10' W 005°23'0 0.0
2015-May-25 23:33N 36°10' W 005°23'6 5.9
2015-May-25 22:33N 36°05' W 005°20'12811.5
2015-May-25 11:31N 36°23' W 002°43'1212.3
2015-May-25 10:31N 36°25' W 002°28'1212.4
2015-May-25 09:33N 36°26' W 002°14'  
2015-May-22 09:07N 36°54' E 013°36'5 9.4
2015-May-22 08:33N 36°52' E 013°42'9 8.9
2015-May-22 07:33N 36°49' E 013°52'8 8.3
2015-May-22 06:33N 36°46' E 014°02'8 8.1
2015-May-22 05:33N 36°44' E 014°12'8 8.2
2015-May-22 04:33N 36°41' E 014°21'8 8.1
2015-May-22 03:33N 36°38' E 014°31'20 9.2
2015-May-22 01:21N 36°33' E 014°56'  

Dump ship's entire track history